Virginia Beach, VA (23456)

2:16 PM EDT on August 29, 2015 (GMT -0400)
Lake Placid | | Change Station
CLOSE
Current Station
Personal Weather Station
Location: Virginia Beach, VA
Elevation: 25 ft
Nearby Weather Stations

Elev 25 ft 36.77 °N, 76.05 °W | Updated 16 seconds ago

Partly Cloudy
Partly Cloudy
83.1 °F
Feels Like 81 °F
N
0.2
Wind Variable Wind from East
Gusts 2.5 mph

Today
High -- | Low -- °F
--% Chance of Precip.
Yesterday
High -- | Low -- °F
Precip. -- in
6:32 AM 7:37 PM
Full, 100% visible
Pressure 30.20 in
Visibility 10.0 miles
Clouds Few 4000 ft
Mostly Cloudy 28000 ft
Heat Index 81 °F
Dew Point 40 °F
Humidity 22%
Rainfall 0.00 in
Snow Depth Not available.
UV 5 out of 12
Pollen 9.20 out of 12
Air Quality Not available.
Flu Activity Not available.
METAR KNTU 291756Z 06009KT 10SM FEW040 BKN280 28/16 A3019 RMK AO2 SLP227 T02830161 10289 20211 56012
Pressure 30.20 in
Visibility 10.0 miles
Clouds Few 4000 ft
Mostly Cloudy 28000 ft
Heat Index 81 °F
Dew Point 40 °F
Humidity 22%
Rainfall 0.00 in
Snow Depth Not available.
UV 5 out of 12
Pollen 9.20 out of 12
Air Quality Not available.
Flu Activity Not available.
METAR KNTU 291756Z 06009KT 10SM FEW040 BKN280 28/16 A3019 RMK AO2 SLP227 T02830161 10289 20211 56012

10-Day Weather Forecast

×

Almanac

Astronomy

Aug. 29, 2015 Rise Set
Actual Time
Civil Twilight
Nautical Twilight
Astronomical Twilight
Moon
Length of Visible Light
Length of Day
Tomorrow will be .
, % of the Moon is Illuminated

Today's Extremes

State Highs State Lows

Community

WunderPhotos

Upload Photos

1,850,752 photos uploaded!

WunderBlogs® & News

Nearby

Air Quality

  Air Quality AQ Index Pollutant
Not available.

Snow Depth

Station Depth Elevation

Earthquake Activity

City Distance Mag. Time & Date
Minimum magnitude displayed is 2.5.

Coastal Water Temperatures

Place Temperature

Stations

Nearby Weather Stations

Station Location Temp. Windchill Dew Point Humidity Wind Precip. Elev Updated Type